Time;durP1;ratioP1;P1;durP2;ratioP2;P2;SDS_P1;SDS_P2;PMS_P1;PMS_P2;Temp;Humidity;BMP_temperature;BMP_pressure;BME280_temperature;BME280_humidity;BME280_pressure;Samples;Min_cycle;Max_cycle;Signal;HPM_P1;HPM_P2
2022/07/16 00:02:06;;;;;;;2.53;2.30;;;14.00;99.90;;;;;;4853595;29;20210;-63
2022/07/16 00:04:34;;;;;;;1.90;1.90;;;14.00;99.90;;;;;;4878239;29;20644;-63
2022/07/16 00:07:02;;;;;;;2.20;2.10;;;14.00;99.90;;;;;;4878443;29;20203;-64
2022/07/16 00:09:31;;;;;;;2.60;2.23;;;13.90;99.90;;;;;;4878314;29;20221;-64
2022/07/16 00:11:59;;;;;;;2.10;2.00;;;13.90;99.90;;;;;;4877052;29;20218;-64
2022/07/16 00:14:29;;;;;;;2.70;2.20;;;13.80;99.90;;;;;;4877219;29;20199;-63
2022/07/16 00:16:58;;;;;;;2.17;2.17;;;13.80;99.90;;;;;;4887371;29;20214;-64
2022/07/16 00:19:25;;;;;;;4.00;2.20;;;13.70;99.90;;;;;;4878711;29;20234;-64
2022/07/16 00:21:56;;;;;;;2.20;2.07;;;13.70;99.90;;;;;;4878094;29;20239;-63
2022/07/16 00:24:26;;;;;;;2.07;1.97;;;13.70;99.90;;;;;;4878151;29;20218;-64
2022/07/16 00:26:55;;;;;;;5.60;2.30;;;13.70;99.90;;;;;;4878076;29;20615;-64
2022/07/16 00:29:23;;;;;;;2.37;2.27;;;13.70;99.90;;;;;;4878218;29;20198;-64
2022/07/16 00:31:54;;;;;;;2.10;2.00;;;13.60;99.90;;;;;;4878104;29;20262;-63
2022/07/16 00:34:24;;;;;;;2.40;2.20;;;13.60;99.90;;;;;;4878045;29;20199;-64
2022/07/16 00:36:53;;;;;;;2.20;2.10;;;13.50;99.90;;;;;;4878366;29;20242;-63
2022/07/16 00:39:21;;;;;;;3.47;2.50;;;13.50;99.90;;;;;;4877379;29;20221;-64
2022/07/16 00:41:50;;;;;;;2.37;2.23;;;13.40;99.90;;;;;;4877791;29;20428;-64
2022/07/16 00:44:20;;;;;;;2.73;2.17;;;13.40;99.90;;;;;;4877750;29;20203;-63
2022/07/16 00:46:50;;;;;;;2.80;1.93;;;13.40;99.90;;;;;;4877304;29;20292;-63
2022/07/16 00:49:20;;;;;;;2.40;2.30;;;13.40;99.90;;;;;;4876842;29;20202;-63
2022/07/16 00:51:50;;;;;;;2.60;2.50;;;13.40;99.90;;;;;;4866247;29;20226;-64
2022/07/16 00:54:19;;;;;;;2.20;2.10;;;13.30;99.90;;;;;;4880757;29;20297;-63
2022/07/16 00:56:51;;;;;;;2.60;2.40;;;13.30;99.90;;;;;;4878249;29;20656;-63
2022/07/16 00:59:21;;;;;;;2.10;2.00;;;13.30;99.90;;;;;;4878165;29;20339;-63
2022/07/16 01:01:52;;;;;;;2.13;2.00;;;13.30;99.90;;;;;;4885648;29;20254;-64
2022/07/16 01:04:22;;;;;;;2.50;2.30;;;13.30;99.90;;;;;;4892649;29;20628;-63
2022/07/16 01:06:54;;;;;;;3.53;2.20;;;13.20;99.90;;;;;;4878129;29;20667;-63
2022/07/16 01:09:22;;;;;;;2.33;2.20;;;13.20;99.90;;;;;;4878102;29;20249;-64
2022/07/16 01:11:51;;;;;;;2.37;2.27;;;13.20;99.90;;;;;;4878441;29;20215;-63
2022/07/16 01:14:21;;;;;;;5.63;2.27;;;13.20;99.90;;;;;;4877963;29;20289;-64
2022/07/16 01:16:49;;;;;;;2.80;2.60;;;13.20;99.90;;;;;;4881335;29;20230;-63
2022/07/16 01:19:17;;;;;;;2.53;2.13;;;13.20;99.90;;;;;;4881255;29;20701;-64
2022/07/16 01:21:47;;;;;;;2.27;2.17;;;13.20;99.90;;;;;;4879870;29;20215;-63
2022/07/16 01:24:17;;;;;;;2.40;2.10;;;13.20;99.90;;;;;;4868891;29;20230;-63
2022/07/16 01:26:46;;;;;;;2.07;1.90;;;13.20;99.90;;;;;;4881583;29;20186;-63
2022/07/16 01:29:15;;;;;;;2.33;2.07;;;13.20;99.90;;;;;;4879992;29;20199;-63
2022/07/16 01:31:43;;;;;;;3.70;1.93;;;13.20;99.90;;;;;;4880919;29;20218;-64
2022/07/16 01:34:27;;;;;;;2.83;2.63;;;13.20;99.90;;;;;;4881004;29;20259;-64
2022/07/16 01:36:57;;;;;;;2.00;1.90;;;13.20;99.90;;;;;;4880990;29;20210;-63
2022/07/16 01:39:29;;;;;;;2.57;1.93;;;13.20;99.90;;;;;;4879590;29;20732;-63
2022/07/16 01:42:00;;;;;;;2.10;2.00;;;13.20;99.90;;;;;;4880979;29;20223;-63
2022/07/16 01:44:30;;;;;;;1.97;1.97;;;13.20;99.90;;;;;;4881330;29;20535;-64
2022/07/16 01:47:00;;;;;;;3.67;2.23;;;13.20;99.90;;;;;;4881259;29;20226;-63
2022/07/16 01:49:31;;;;;;;2.23;2.07;;;13.20;99.90;;;;;;4879350;29;20277;-64
2022/07/16 01:52:06;;;;;;;1.80;1.80;;;13.20;99.90;;;;;;4878872;29;20223;-64
2022/07/16 01:54:36;;;;;;;2.07;1.90;;;13.20;99.90;;;;;;4882740;29;20285;-64
2022/07/16 01:57:04;;;;;;;2.67;1.93;;;13.10;99.90;;;;;;4880316;29;20206;-63
2022/07/16 01:59:33;;;;;;;2.33;1.90;;;13.10;99.90;;;;;;4880841;29;20227;-64
2022/07/16 02:02:02;;;;;;;2.13;2.00;;;13.00;99.90;;;;;;4879401;29;20259;-64
2022/07/16 02:04:31;;;;;;;1.90;1.80;;;13.00;99.90;;;;;;4880583;29;20231;-64
2022/07/16 02:07:00;;;;;;;3.30;2.10;;;13.00;99.90;;;;;;4880790;29;20249;-64
2022/07/16 02:09:29;;;;;;;2.53;2.37;;;12.90;99.90;;;;;;4880447;29;20207;-64
2022/07/16 02:11:59;;;;;;;2.43;2.23;;;12.80;99.90;;;;;;4879432;29;20305;-64
2022/07/16 02:14:27;;;;;;;2.10;2.00;;;12.80;99.90;;;;;;4880925;29;20251;-63
2022/07/16 02:16:56;;;;;;;2.13;1.93;;;12.80;99.90;;;;;;4879080;29;20294;-63
2022/07/16 02:19:25;;;;;;;2.10;2.00;;;12.80;99.90;;;;;;4879401;29;20199;-64
2022/07/16 02:21:53;;;;;;;2.20;2.10;;;12.80;99.90;;;;;;4878985;29;20271;-64
2022/07/16 02:24:23;;;;;;;2.17;2.07;;;12.80;99.90;;;;;;4880144;29;20281;-63
2022/07/16 02:26:51;;;;;;;2.63;2.10;;;12.80;99.90;;;;;;4880338;29;20286;-63
2022/07/16 02:29:23;;;;;;;2.20;2.10;;;12.80;99.90;;;;;;4879044;29;20198;-64
2022/07/16 02:31:51;;;;;;;2.00;1.90;;;12.80;99.90;;;;;;4880294;29;20298;-64
2022/07/16 02:34:19;;;;;;;2.63;2.50;;;12.70;99.90;;;;;;4878958;29;20209;-63
2022/07/16 02:36:48;;;;;;;2.40;2.30;;;12.70;99.90;;;;;;4880770;29;20290;-64
2022/07/16 02:39:16;;;;;;;2.20;2.10;;;12.60;99.90;;;;;;4880267;29;20199;-63
2022/07/16 02:41:45;;;;;;;2.30;2.20;;;12.60;99.90;;;;;;4880215;29;20207;-63
2022/07/16 02:44:14;;;;;;;2.40;2.20;;;12.50;99.90;;;;;;4880206;29;20252;-64
2022/07/16 02:46:43;;;;;;;2.53;2.43;;;12.50;99.90;;;;;;4879037;29;20648;-63
2022/07/16 02:49:12;;;;;;;3.27;2.50;;;12.40;99.90;;;;;;4880504;29;20191;-64
2022/07/16 02:51:40;;;;;;;2.93;2.40;;;12.40;99.90;;;;;;4880050;29;20223;-63
2022/07/16 02:54:09;;;;;;;2.40;2.30;;;12.40;99.90;;;;;;4879716;29;20276;-63
2022/07/16 02:56:37;;;;;;;2.83;2.63;;;12.40;99.90;;;;;;4880011;29;20238;-63
2022/07/16 02:59:06;;;;;;;3.97;2.80;;;12.40;99.90;;;;;;4878465;29;20231;-63
2022/07/16 03:01:34;;;;;;;4.47;3.03;;;12.30;99.90;;;;;;4879973;29;20233;-63
2022/07/16 03:04:04;;;;;;;3.00;2.70;;;12.30;99.90;;;;;;4879787;29;20760;-63
2022/07/16 03:06:34;;;;;;;3.30;3.10;;;12.30;99.90;;;;;;4879898;29;20205;-63
2022/07/16 03:09:02;;;;;;;5.03;3.80;;;12.30;99.90;;;;;;4879941;29;20659;-63
2022/07/16 03:11:33;;;;;;;5.33;3.40;;;12.30;99.90;;;;;;4879793;29;20206;-63
2022/07/16 03:14:02;;;;;;;3.80;3.40;;;12.30;99.90;;;;;;4878358;29;20308;-63
2022/07/16 03:16:30;;;;;;;3.60;3.37;;;12.30;99.90;;;;;;4885594;29;20208;-63
2022/07/16 03:18:59;;;;;;;4.27;3.83;;;12.30;99.90;;;;;;4898241;29;20202;-63
2022/07/16 03:21:29;;;;;;;3.80;3.60;;;12.30;99.90;;;;;;4898229;29;20198;-63
2022/07/16 03:23:57;;;;;;;3.83;3.53;;;12.30;99.90;;;;;;4893248;29;20195;-63
2022/07/16 03:26:26;;;;;;;4.10;3.77;;;12.30;99.90;;;;;;4878233;29;20203;-64
2022/07/16 03:28:54;;;;;;;5.33;3.90;;;12.40;99.90;;;;;;4879332;29;20199;-64
2022/07/16 03:31:23;;;;;;;4.20;3.80;;;12.40;99.90;;;;;;4878306;29;20658;-63
2022/07/16 03:33:51;;;;;;;4.73;4.00;;;12.40;99.90;;;;;;4879328;29;20691;-63
2022/07/16 03:36:20;;;;;;;4.70;4.30;;;12.40;99.90;;;;;;4878901;29;20203;-63
2022/07/16 03:39:03;;;;;;;5.17;4.30;;;12.40;99.90;;;;;;4879321;29;20254;-63
2022/07/16 03:41:32;;;;;;;4.83;4.33;;;12.40;99.90;;;;;;4879509;29;20254;-63
2022/07/16 03:44:01;;;;;;;5.50;4.40;;;12.50;99.90;;;;;;4879113;29;20230;-63
2022/07/16 03:46:30;;;;;;;5.73;4.87;;;12.50;99.90;;;;;;4879127;29;20247;-63
2022/07/16 03:48:59;;;;;;;6.03;4.73;;;12.60;99.90;;;;;;4879346;29;20205;-63
2022/07/16 03:51:27;;;;;;;5.23;4.50;;;12.70;99.90;;;;;;4879246;29;20207;-63
2022/07/16 03:53:57;;;;;;;7.47;5.10;;;12.90;99.90;;;;;;4877778;29;20309;-63
2022/07/16 03:56:26;;;;;;;7.87;4.30;;;13.00;99.90;;;;;;4879574;29;20569;-63
2022/07/16 03:58:54;;;;;;;5.50;5.00;;;13.10;99.90;;;;;;4879109;29;20199;-63
2022/07/16 04:01:23;;;;;;;6.40;5.20;;;13.20;99.90;;;;;;4878418;29;20640;-64
2022/07/16 04:04:03;;;;;;;7.47;6.10;;;13.30;99.90;;;;;;4877735;29;20711;-63
2022/07/16 04:06:31;;;;;;;6.80;6.10;;;13.40;99.90;;;;;;4877881;29;20229;-63
2022/07/16 04:09:02;;;;;;;7.37;5.40;;;13.50;99.90;;;;;;4878732;29;20822;-63
2022/07/16 04:11:30;;;;;;;7.53;6.03;;;13.70;99.90;;;;;;4877601;29;20690;-63
2022/07/16 04:13:59;;;;;;;7.63;6.10;;;13.80;99.90;;;;;;4877347;29;20886;-64
2022/07/16 04:16:27;;;;;;;7.70;5.27;;;13.90;99.90;;;;;;4877503;29;20229;-64
2022/07/16 04:18:55;;;;;;;7.10;5.13;;;13.90;99.90;;;;;;4878783;29;20623;-63
2022/07/16 04:21:24;;;;;;;8.17;5.53;;;14.00;99.90;;;;;;4878943;29;20303;-63
2022/07/16 04:23:52;;;;;;;6.10;5.60;;;14.00;99.90;;;;;;4877492;29;20258;-63
2022/07/16 04:26:22;;;;;;;7.83;5.40;;;14.10;99.90;;;;;;4878957;29;20203;-64
2022/07/16 04:28:51;;;;;;;7.43;5.70;;;14.20;99.90;;;;;;4878809;29;20207;-63
2022/07/16 04:31:20;;;;;;;5.67;5.17;;;14.20;99.90;;;;;;4878894;29;20243;-63
2022/07/16 04:33:49;;;;;;;8.83;6.37;;;14.30;99.90;;;;;;4878686;29;20279;-63
2022/07/16 04:36:17;;;;;;;15.70;6.07;;;14.30;99.90;;;;;;4878875;29;20203;-63
2022/07/16 04:38:46;;;;;;;6.97;5.40;;;14.40;99.90;;;;;;4878413;29;20215;-64
2022/07/16 04:41:14;;;;;;;6.97;5.97;;;14.50;99.90;;;;;;4878967;29;20195;-64
2022/07/16 04:43:44;;;;;;;9.37;5.77;;;14.70;99.90;;;;;;4877652;29;20202;-64
2022/07/16 04:46:13;;;;;;;7.37;5.77;;;14.80;99.90;;;;;;4878778;29;20206;-63
2022/07/16 04:48:42;;;;;;;8.37;5.80;;;14.90;99.90;;;;;;4880370;29;20206;-63
2022/07/16 04:51:10;;;;;;;8.30;5.70;;;15.00;99.90;;;;;;4882123;29;20217;-64
2022/07/16 04:53:39;;;;;;;10.60;5.77;;;15.10;99.90;;;;;;4881960;29;20245;-64
2022/07/16 04:56:07;;;;;;;8.60;5.80;;;15.20;99.90;;;;;;4882297;29;20563;-63
2022/07/16 04:58:36;;;;;;;7.20;5.60;;;15.20;99.90;;;;;;4881103;29;20207;-64
2022/07/16 05:01:06;;;;;;;5.87;5.30;;;15.30;99.90;;;;;;4882293;29;20232;-64
2022/07/16 05:03:35;;;;;;;8.70;5.73;;;15.40;99.90;;;;;;4882094;29;20577;-64
2022/07/16 05:06:03;;;;;;;9.50;6.00;;;15.50;99.90;;;;;;4881678;29;20573;-63
2022/07/16 05:08:32;;;;;;;6.93;6.23;;;15.50;99.90;;;;;;4881740;29;20626;-64
2022/07/16 05:11:09;;;;;;;7.77;5.97;;;15.60;99.90;;;;;;4880630;29;20306;-64
2022/07/16 05:13:38;;;;;;;11.33;6.53;;;15.70;99.90;;;;;;4881565;29;20215;-64
2022/07/16 05:16:08;;;;;;;10.40;6.40;;;15.80;99.90;;;;;;4881485;29;20234;-63
2022/07/16 05:18:36;;;;;;;9.53;5.97;;;16.00;99.90;;;;;;4881859;29;20222;-64
2022/07/16 05:21:05;;;;;;;7.90;5.80;;;16.10;99.90;;;;;;4880471;29;20203;-64
2022/07/16 05:23:35;;;;;;;7.87;5.57;;;16.30;99.90;;;;;;4881421;29;20262;-64
2022/07/16 05:26:04;;;;;;;12.53;6.00;;;16.40;99.90;;;;;;4881410;29;20259;-64
2022/07/16 05:28:33;;;;;;;8.73;5.80;;;16.60;99.90;;;;;;4881521;29;20283;-64
2022/07/16 05:31:01;;;;;;;12.57;6.13;;;16.70;99.90;;;;;;4880249;29;20238;-64
2022/07/16 05:33:31;;;;;;;9.67;6.17;;;16.90;99.90;;;;;;4881352;29;20219;-64
2022/07/16 05:35:59;;;;;;;6.90;5.30;;;17.10;99.90;;;;;;4881367;29;20235;-64
2022/07/16 05:38:28;;;;;;;11.00;6.03;;;17.20;99.90;;;;;;4865243;29;20208;-64
2022/07/16 05:40:57;;;;;;;9.33;6.43;;;17.30;99.90;;;;;;4872908;29;20282;-64
2022/07/16 05:43:25;;;;;;;9.93;6.23;;;17.40;99.90;;;;;;4881463;29;20226;-64
2022/07/16 05:45:54;;;;;;;9.50;5.90;;;17.50;99.90;;;;;;4881232;29;20253;-64
2022/07/16 05:48:22;;;;;;;9.70;6.20;;;17.60;99.90;;;;;;4880551;29;20194;-64
2022/07/16 05:50:52;;;;;;;6.57;5.50;;;17.70;99.90;;;;;;4880754;29;20198;-64
2022/07/16 05:53:20;;;;;;;8.47;6.33;;;17.80;99.90;;;;;;4883195;29;20629;-64
2022/07/16 05:55:49;;;;;;;8.37;6.03;;;17.90;99.90;;;;;;4880842;29;20206;-64
2022/07/16 05:58:18;;;;;;;11.53;6.07;;;18.00;99.90;;;;;;4879842;29;20646;-64
2022/07/16 06:00:46;;;;;;;9.97;6.30;;;18.10;99.90;;;;;;4878998;29;20586;-64
2022/07/16 06:03:15;;;;;;;7.50;6.00;;;18.20;99.90;;;;;;4864538;29;20195;-64
2022/07/16 06:05:43;;;;;;;8.67;5.70;;;18.20;99.90;;;;;;4879548;29;20210;-65
2022/07/16 06:08:13;;;;;;;9.87;6.20;;;18.30;99.90;;;;;;4879528;29;20250;-64
2022/07/16 06:10:42;;;;;;;8.17;5.20;;;18.50;99.90;;;;;;4879488;29;20195;-65
2022/07/16 06:13:10;;;;;;;6.40;5.43;;;18.50;99.90;;;;;;4880519;29;20255;-64
2022/07/16 06:15:42;;;;;;;8.50;5.53;;;18.60;99.90;;;;;;4879174;29;20267;-65
2022/07/16 06:18:10;;;;;;;9.30;5.00;;;18.60;99.90;;;;;;4879759;29;20294;-65
2022/07/16 06:20:39;;;;;;;5.07;4.40;;;18.60;99.90;;;;;;4880641;29;20211;-64
2022/07/16 06:23:07;;;;;;;6.27;5.07;;;18.60;99.90;;;;;;4880167;29;20317;-64
2022/07/16 06:25:38;;;;;;;7.60;5.00;;;18.70;99.90;;;;;;4879138;29;20195;-65
2022/07/16 06:28:06;;;;;;;8.10;4.60;;;18.80;99.90;;;;;;4880262;29;20230;-64
2022/07/16 06:30:35;;;;;;;7.97;4.67;;;18.90;99.90;;;;;;4879927;29;20195;-64
2022/07/16 06:33:04;;;;;;;5.73;4.23;;;19.40;99.90;;;;;;4880085;29;20241;-64
2022/07/16 06:35:33;;;;;;;5.37;3.90;;;19.80;99.90;;;;;;4867459;29;20274;-65
2022/07/16 06:38:03;;;;;;;3.50;3.17;;;20.10;99.90;;;;;;4880183;29;20206;-65
2022/07/16 06:40:32;;;;;;;4.40;3.07;;;20.40;99.90;;;;;;4880296;29;20248;-65
2022/07/16 06:43:02;;;;;;;3.90;3.20;;;20.70;99.90;;;;;;4879992;29;20207;-65
2022/07/16 06:45:30;;;;;;;5.23;3.50;;;21.00;99.90;;;;;;4880320;29;20267;-65
2022/07/16 06:47:59;;;;;;;5.80;2.93;;;21.00;99.90;;;;;;4880196;29;20289;-65
2022/07/16 06:50:28;;;;;;;5.17;3.10;;;21.10;99.90;;;;;;4879992;29;20203;-65
2022/07/16 06:52:56;;;;;;;4.27;2.67;;;21.30;99.90;;;;;;4879587;29;20204;-65
2022/07/16 06:55:25;;;;;;;2.40;2.00;;;21.50;99.90;;;;;;4879953;29;20299;-66
2022/07/16 06:57:54;;;;;;;3.27;2.47;;;21.70;99.90;;;;;;4879991;29;20197;-65
2022/07/16 07:00:23;;;;;;;2.43;2.20;;;21.90;99.90;;;;;;4880042;29;20723;-65
2022/07/16 07:02:52;;;;;;;3.67;2.07;;;22.10;99.90;;;;;;4872549;29;20276;-64
2022/07/16 07:05:23;;;;;;;2.30;2.10;;;22.10;99.90;;;;;;4879216;29;20232;-65
2022/07/16 07:07:51;;;;;;;3.40;2.00;;;22.30;99.90;;;;;;4876953;29;20226;-65
2022/07/16 07:10:20;;;;;;;2.30;2.10;;;22.40;99.90;;;;;;4876619;29;20199;-61
2022/07/16 07:12:48;;;;;;;5.37;2.33;;;22.70;99.90;;;;;;4879026;29;20663;-65
2022/07/16 07:15:19;;;;;;;4.43;1.80;;;23.00;99.90;;;;;;4874486;29;20223;-66
2022/07/16 07:17:50;;;;;;;2.10;2.00;;;23.10;99.90;;;;;;4878577;29;20225;-65
2022/07/16 07:20:21;;;;;;;2.53;1.53;;;23.30;99.90;;;;;;4877997;29;20235;-63
2022/07/16 07:22:51;;;;;;;2.30;1.80;;;23.70;99.90;;;;;;4876079;29;20615;-63
2022/07/16 07:25:20;;;;;;;2.47;1.73;;;23.80;99.90;;;;;;4876937;29;20195;-63
2022/07/16 07:27:49;;;;;;;2.83;1.52;;;24.00;99.90;;;;;;4871923;29;20244;-62
2022/07/16 07:30:18;;;;;;;2.58;1.35;;;24.20;99.90;;;;;;4871230;29;20844;-63
2022/07/16 07:32:46;;;;;;;1.27;1.17;;;24.40;99.90;;;;;;4869426;29;20217;-63
2022/07/16 07:35:16;;;;;;;1.63;1.23;;;24.30;99.90;;;;;;4877407;29;20227;-62
2022/07/16 07:37:44;;;;;;;3.13;1.20;;;23.60;99.90;;;;;;4879269;29;20294;-62
2022/07/16 07:40:13;;;;;;;3.07;1.30;;;23.20;99.90;;;;;;4879032;29;20614;-62
2022/07/16 07:42:42;;;;;;;1.30;1.20;;;23.00;99.90;;;;;;4878497;29;20702;-62
2022/07/16 07:45:11;;;;;;;1.50;1.40;;;23.70;99.90;;;;;;4876776;29;20539;-63
2022/07/16 07:47:40;;;;;;;1.83;1.20;;;24.40;99.90;;;;;;4878487;29;20217;-63
2022/07/16 07:50:09;;;;;;;1.20;1.10;;;25.00;99.90;;;;;;4876836;29;20291;-63
2022/07/16 07:52:39;;;;;;;1.98;1.02;;;25.70;99.90;;;;;;4881766;29;20289;-63
2022/07/16 07:55:08;;;;;;;2.53;1.27;;;25.70;99.90;;;;;;4890514;29;20227;-62
2022/07/16 07:57:38;;;;;;;2.05;1.30;;;25.10;99.90;;;;;;4879143;29;20206;-62
2022/07/16 08:00:08;;;;;;;1.10;1.10;;;24.00;99.90;;;;;;4878912;29;20211;-62
2022/07/16 08:02:37;;;;;;;3.65;1.27;;;24.20;99.90;;;;;;4877614;29;20285;-62
2022/07/16 08:05:06;;;;;;;1.30;1.20;;;25.10;99.90;;;;;;4878815;29;20279;-63
2022/07/16 08:07:35;;;;;;;1.17;1.08;;;26.10;99.90;;;;;;4878402;29;20245;-63
2022/07/16 08:10:05;;;;;;;0.80;0.80;;;27.10;99.90;;;;;;4878461;29;20207;-63
2022/07/16 08:12:34;;;;;;;1.25;1.10;;;27.80;99.90;;;;;;4878493;29;20226;-63
2022/07/16 08:15:02;;;;;;;2.58;0.90;;;28.10;99.90;;;;;;4878259;29;20231;-64
2022/07/16 08:17:37;;;;;;;1.42;1.10;;;28.60;99.90;;;;;;4878373;29;20221;-63
2022/07/16 08:20:08;;;;;;;0.82;0.82;;;28.60;99.90;;;;;;4877806;29;20216;-63
2022/07/16 08:22:37;;;;;;;1.02;0.93;;;28.80;99.90;;;;;;4861854;29;20777;-63
2022/07/16 08:27:54;;;;;;;1.90;0.80;;;29.60;99.90;;;;;;4881829;29;20206;-64
2022/07/16 08:30:23;;;;;;;1.00;0.98;;;29.90;99.90;;;;;;4882052;29;20212;-63
2022/07/16 08:32:51;;;;;;;1.45;1.00;;;30.50;99.90;;;;;;4882196;29;20262;-64
2022/07/16 08:35:20;;;;;;;0.85;0.85;;;30.50;99.90;;;;;;4880503;29;20217;-63
2022/07/16 08:37:49;;;;;;;2.28;1.00;;;29.90;99.90;;;;;;4882281;29;20266;-63
2022/07/16 08:40:21;;;;;;;1.20;1.10;;;30.10;99.90;;;;;;4881758;29;20298;-63
2022/07/16 08:42:51;;;;;;;0.85;0.85;;;30.20;99.90;;;;;;4881865;29;20284;-62
2022/07/16 08:45:22;;;;;;;1.15;1.02;;;30.10;99.90;;;;;;4869871;29;20633;-63
2022/07/16 08:47:53;;;;;;;2.22;1.27;;;29.60;99.90;;;;;;4880451;29;20689;-63
2022/07/16 08:50:24;;;;;;;0.95;0.95;;;30.00;99.90;;;;;;4881582;29;20212;-63
2022/07/16 08:52:54;;;;;;;1.90;1.00;;;29.70;99.90;;;;;;4884310;29;20217;-63
2022/07/16 08:55:25;;;;;;;1.05;1.05;;;28.60;99.90;;;;;;4881611;29;20254;-62
2022/07/16 08:57:57;;;;;;;1.02;1.02;;;28.10;99.90;;;;;;4881821;29;20203;-62
2022/07/16 09:00:25;;;;;;;1.88;1.10;;;28.60;99.90;;;;;;4881495;29;20216;-62
2022/07/16 09:02:54;;;;;;;2.33;1.08;;;29.40;99.90;;;;;;4881626;29;20284;-63
2022/07/16 09:05:24;;;;;;;0.90;0.90;;;30.00;99.90;;;;;;4881518;29;20625;-63
2022/07/16 09:07:53;;;;;;;3.40;1.20;;;29.90;99.90;;;;;;4881532;29;20753;-63
2022/07/16 09:10:21;;;;;;;1.10;1.10;;;30.20;99.90;;;;;;4880880;29;20305;-63
2022/07/16 09:12:51;;;;;;;1.45;0.93;;;30.50;99.90;;;;;;4881358;29;20239;-70
2022/07/16 09:15:32;;;;;;;1.00;1.00;;;30.20;99.90;;;;;;4880836;29;20203;-66
2022/07/16 09:18:12;;;;;;;0.63;0.60;;;30.30;99.90;;;;;;4889820;29;20207;-67
2022/07/16 09:20:44;;;;;;;0.82;0.82;;;30.50;99.90;;;;;;4880218;29;20230;-63
2022/07/16 09:23:34;;;;;;;3.40;0.80;;;30.50;99.90;;;;;;4880522;29;20236;-63
2022/07/16 09:26:11;;;;;;;2.13;1.00;;;30.70;99.90;;;;;;4878434;29;20241;-63
2022/07/16 09:28:43;;;;;;;0.73;0.73;;;30.40;99.90;;;;;;4880197;29;20670;-63
2022/07/16 09:31:13;;;;;;;1.00;1.00;;;30.00;99.90;;;;;;4878804;29;20207;-63
2022/07/16 09:33:41;;;;;;;0.80;0.80;;;29.80;99.90;;;;;;4880018;29;20271;-63
2022/07/16 09:36:12;;;;;;;1.13;1.00;;;29.30;99.90;;;;;;4878744;29;20214;-63
2022/07/16 09:38:51;;;;;;;1.07;0.97;;;29.90;99.90;;;;;;4879142;29;20443;-63
2022/07/16 09:41:22;;;;;;;0.90;0.90;;;30.70;99.90;;;;;;4880115;29;20265;-63
2022/07/16 09:43:52;;;;;;;0.90;0.90;;;31.10;99.90;;;;;;4880096;29;20289;-63
2022/07/16 09:46:23;;;;;;;1.88;0.65;;;30.60;99.90;;;;;;4880234;29;20226;-63
2022/07/16 09:48:52;;;;;;;0.90;0.90;;;29.80;99.90;;;;;;4878662;29;20324;-63
2022/07/16 09:51:22;;;;;;;1.50;1.20;;;29.50;99.90;;;;;;4879501;29;20283;-61
2022/07/16 09:53:52;;;;;;;2.28;0.90;;;30.00;99.90;;;;;;4881033;29;20205;-63
2022/07/16 09:56:23;;;;;;;0.98;0.95;;;30.70;99.90;;;;;;4880113;29;20210;-67
2022/07/16 09:58:55;;;;;;;1.10;1.10;;;31.30;99.90;;;;;;4880354;29;20201;-67
2022/07/16 10:01:29;;;;;;;1.05;0.88;;;31.50;99.90;;;;;;4879189;29;20194;-67
2022/07/16 10:03:57;;;;;;;1.00;1.00;;;32.00;99.90;;;;;;4880044;29;20253;-63
2022/07/16 10:06:28;;;;;;;2.80;1.27;;;32.00;99.20;;;;;;4878367;29;20219;-63
2022/07/16 10:08:56;;;;;;;1.10;1.10;;;31.90;99.70;;;;;;4879358;29;20618;-62
2022/07/16 10:11:25;;;;;;;2.20;0.98;;;32.20;99.70;;;;;;4878214;29;20191;-63
2022/07/16 10:13:56;;;;;;;3.05;0.88;;;32.60;98.70;;;;;;4879604;29;20664;-63
2022/07/16 10:16:40;;;;;;;0.98;0.98;;;33.10;98.80;;;;;;4878124;29;20226;-62
2022/07/16 10:19:09;;;;;;;0.80;0.80;;;32.90;98.60;;;;;;4879206;29;20290;-63
2022/07/16 10:21:38;;;;;;;1.38;0.98;;;32.80;99.70;;;;;;4877801;29;20211;-62
2022/07/16 10:24:09;;;;;;;1.15;1.05;;;33.10;99.90;;;;;;4879457;29;20207;-63
2022/07/16 10:26:39;;;;;;;0.90;0.90;;;33.20;98.50;;;;;;4878837;29;20223;-62
2022/07/16 10:29:09;;;;;;;0.82;0.82;;;32.10;97.90;;;;;;4877924;29;20297;-62
2022/07/16 10:31:40;;;;;;;0.80;0.80;;;31.90;99.70;;;;;;4879024;29;20747;-62
2022/07/16 10:34:40;;;;;;;1.42;0.77;;;32.20;99.60;;;;;;4879217;29;20214;-62
2022/07/16 10:37:12;;;;;;;1.10;1.00;;;32.10;98.00;;;;;;4879452;29;20209;-62
2022/07/16 10:40:07;;;;;;;2.35;0.88;;;32.10;97.80;;;;;;4879092;29;20326;-62
2022/07/16 10:42:35;;;;;;;1.05;1.05;;;32.50;97.80;;;;;;4860130;29;20506;-62
2022/07/16 10:45:07;;;;;;;0.95;0.95;;;31.40;96.90;;;;;;4877562;29;20213;-62
2022/07/16 10:47:50;;;;;;;2.63;1.05;;;30.90;97.40;;;;;;4878815;29;20222;-62
2022/07/16 10:50:22;;;;;;;1.08;1.08;;;30.70;98.80;;;;;;4878808;29;20283;-62
2022/07/16 10:52:56;;;;;;;1.30;1.20;;;30.90;97.60;;;;;;4881231;29;20672;-62
2022/07/16 10:55:32;;;;;;;0.93;0.93;;;30.40;97.40;;;;;;4877481;29;20195;-62
2022/07/16 10:58:02;;;;;;;1.50;1.40;;;29.90;98.40;;;;;;4878941;29;20201;-62
2022/07/16 11:00:32;;;;;;;1.05;0.80;;;30.00;98.70;;;;;;4879048;29;20795;-62
2022/07/16 11:03:04;;;;;;;1.30;1.17;;;30.50;98.00;;;;;;4878775;29;20207;-62
2022/07/16 11:05:48;;;;;;;1.92;0.88;;;30.70;98.90;;;;;;4877158;29;20223;-62
2022/07/16 11:08:17;;;;;;;1.77;1.00;;;31.10;97.50;;;;;;4877653;29;20309;-63
2022/07/16 11:10:49;;;;;;;0.90;0.90;;;31.00;96.50;;;;;;4878291;29;20273;-62
2022/07/16 11:13:18;;;;;;;0.80;0.80;;;30.90;97.80;;;;;;4878610;29;20673;-62
2022/07/16 11:15:49;;;;;;;2.15;1.00;;;30.70;96.40;;;;;;4878237;29;20202;-62
2022/07/16 11:18:17;;;;;;;3.30;1.02;;;30.70;95.90;;;;;;4878798;29;20248;-62
2022/07/16 11:20:47;;;;;;;1.55;0.93;;;30.60;97.40;;;;;;4878149;29;20211;-62
2022/07/16 11:23:17;;;;;;;1.05;0.98;;;30.60;97.90;;;;;;4878534;29;20239;-62
2022/07/16 11:25:57;;;;;;;0.93;0.90;;;30.80;97.00;;;;;;4878001;29;20317;-62
2022/07/16 11:28:25;;;;;;;1.38;1.17;;;31.10;98.00;;;;;;4878419;29;20230;-62
2022/07/16 11:31:03;;;;;;;1.73;1.17;;;30.80;97.10;;;;;;4878526;29;20663;-63
2022/07/16 11:33:49;;;;;;;1.50;1.00;;;30.70;96.40;;;;;;4861723;29;20297;-62
2022/07/16 11:36:20;;;;;;;0.90;0.90;;;30.60;97.00;;;;;;4876993;29;20210;-62
2022/07/16 11:38:49;;;;;;;1.45;1.35;;;30.60;97.60;;;;;;4866157;29;20266;-62
2022/07/16 11:41:18;;;;;;;1.05;1.00;;;30.20;97.40;;;;;;4877944;29;20277;-62
2022/07/16 11:43:47;;;;;;;2.70;1.35;;;30.00;97.00;;;;;;4878051;29;20209;-62
2022/07/16 11:46:25;;;;;;;4.15;1.40;;;29.50;96.80;;;;;;4877793;29;20208;-62
2022/07/16 11:48:55;;;;;;;1.73;1.30;;;29.30;99.10;;;;;;4878265;29;20212;-62
2022/07/16 11:51:25;;;;;;;1.17;1.08;;;29.30;99.00;;;;;;4877824;29;20208;-62
2022/07/16 11:53:55;;;;;;;1.13;1.13;;;29.50;98.00;;;;;;4878847;29;20200;-64
2022/07/16 11:56:34;;;;;;;2.03;1.17;;;29.50;96.50;;;;;;4877709;29;20199;-64
2022/07/16 11:59:07;;;;;;;1.17;1.17;;;29.10;96.50;;;;;;4877408;29;20233;-64
2022/07/16 12:01:38;;;;;;;1.55;1.30;;;28.90;97.60;;;;;;4877840;29;20236;-64
2022/07/16 12:04:07;;;;;;;1.55;1.45;;;28.50;97.70;;;;;;4877866;29;20237;-64
2022/07/16 12:06:36;;;;;;;2.40;1.38;;;28.20;97.40;;;;;;4876756;29;20198;-64
2022/07/16 12:09:05;;;;;;;3.30;1.40;;;28.20;99.60;;;;;;4876401;29;20275;-64
2022/07/16 12:11:35;;;;;;;1.10;1.10;;;28.50;97.20;;;;;;4877650;29;20299;-64
2022/07/16 12:14:04;;;;;;;2.20;1.27;;;28.60;98.80;;;;;;4876749;29;20549;-64
2022/07/16 12:16:33;;;;;;;1.37;1.17;;;28.60;99.40;;;;;;4877446;29;20210;-64
2022/07/16 12:19:08;;;;;;;1.50;1.40;;;28.60;98.50;;;;;;4877794;29;20698;-64
2022/07/16 12:21:38;;;;;;;1.52;1.48;;;28.70;98.60;;;;;;4875958;29;20215;-64
2022/07/16 12:24:08;;;;;;;2.43;1.40;;;28.50;97.10;;;;;;4876578;29;20271;-64
2022/07/16 12:26:38;;;;;;;1.40;1.30;;;28.50;98.80;;;;;;4877680;29;20202;-64
2022/07/16 12:29:11;;;;;;;3.23;1.50;;;28.20;98.30;;;;;;4877719;29;20207;-65
2022/07/16 12:31:42;;;;;;;3.27;1.63;;;27.80;99.40;;;;;;4876950;29;20675;-64
2022/07/16 12:34:13;;;;;;;2.00;1.20;;;27.80;99.70;;;;;;4877740;29;20207;-64
2022/07/16 12:36:42;;;;;;;1.30;1.30;;;28.00;98.40;;;;;;4877360;29;20207;-64
2022/07/16 12:39:11;;;;;;;3.63;1.40;;;28.00;98.60;;;;;;4877594;29;20203;-64
2022/07/16 12:41:41;;;;;;;1.30;1.20;;;28.10;98.70;;;;;;4877296;29;20290;-64
2022/07/16 12:44:12;;;;;;;1.17;1.17;;;27.90;99.70;;;;;;4873539;29;20246;-64
2022/07/16 12:46:44;;;;;;;4.67;1.40;;;28.00;98.90;;;;;;4874868;29;20242;-65
2022/07/16 12:49:24;;;;;;;2.17;1.30;;;28.10;99.90;;;;;;4872998;29;20237;-64
2022/07/16 12:51:56;;;;;;;2.07;1.60;;;28.10;97.70;;;;;;4865285;29;20330;-64
2022/07/16 12:54:25;;;;;;;2.83;1.40;;;27.90;99.20;;;;;;4874319;29;20296;-65
2022/07/16 12:59:40;;;;;;;1.40;1.30;;;27.50;99.90;;;;;;4875705;29;20263;-65
2022/07/16 13:02:09;;;;;;;1.70;1.60;;;27.80;99.90;;;;;;4875860;29;20271;-64
2022/07/16 13:04:38;;;;;;;1.50;1.40;;;28.10;99.90;;;;;;4876674;29;20234;-64
2022/07/16 13:07:09;;;;;;;1.60;1.50;;;27.90;99.90;;;;;;4874577;29;20231;-64